createdAt,value
2023-03-29T00:02:59.399Z,4.30
2023-03-29T00:06:03.954Z,4.40
2023-03-29T00:09:05.933Z,4.25
2023-03-29T00:12:13.731Z,4.35
2023-03-29T00:15:20.598Z,4.65
2023-03-29T00:18:23.174Z,4.40
2023-03-29T00:21:25.104Z,4.07
2023-03-29T00:27:47.888Z,4.10
2023-03-29T00:30:50.912Z,4.10
2023-03-29T00:33:55.799Z,4.00
2023-03-29T00:36:59.082Z,4.30
2023-03-29T00:40:00.738Z,3.55
2023-03-29T00:43:16.121Z,4.03
2023-03-29T00:46:23.453Z,4.60
2023-03-29T00:49:26.282Z,4.20
2023-03-29T00:52:32.264Z,4.20
2023-03-29T00:55:47.422Z,3.45
2023-03-29T00:59:00.115Z,3.65
2023-03-29T01:02:05.683Z,4.55
2023-03-29T01:05:31.646Z,5.07
2023-03-29T01:08:44.658Z,4.30
2023-03-29T01:11:56.141Z,4.88
2023-03-29T01:15:16.553Z,4.43
2023-03-29T01:18:23.066Z,3.85
2023-03-29T01:21:51.509Z,4.05
2023-03-29T01:25:40.528Z,4.38
2023-03-29T01:28:50.586Z,4.78
2023-03-29T01:31:58.161Z,4.13
2023-03-29T01:35:10.348Z,4.68
2023-03-29T01:38:28.117Z,3.90
2023-03-29T01:41:43.030Z,3.92
2023-03-29T01:45:03.368Z,4.53
2023-03-29T01:48:24.256Z,4.78
2023-03-29T01:51:34.447Z,3.72
2023-03-29T01:54:41.553Z,3.60
2023-03-29T01:57:46.040Z,4.85
2023-03-29T02:00:49.215Z,5.00
2023-03-29T02:04:03.103Z,3.45
2023-03-29T02:07:10.624Z,4.20
2023-03-29T02:10:18.976Z,4.10
2023-03-29T02:13:21.654Z,3.15
2023-03-29T02:16:24.190Z,4.43
2023-03-29T02:19:30.365Z,3.47
2023-03-29T02:22:41.174Z,3.65
2023-03-29T02:25:45.670Z,4.10
2023-03-29T02:28:48.004Z,3.78
2023-03-29T02:35:54.564Z,2.67
2023-03-29T02:38:59.959Z,3.28
2023-03-29T02:42:05.692Z,3.30
2023-03-29T02:45:14.549Z,3.83
2023-03-29T02:48:19.975Z,3.17
2023-03-29T02:51:26.352Z,3.75
2023-03-29T02:54:31.667Z,3.38
2023-03-29T02:57:39.429Z,3.25
2023-03-29T03:00:46.507Z,2.50
2023-03-29T03:03:50.672Z,3.35
2023-03-29T03:06:52.872Z,3.13
2023-03-29T03:09:54.458Z,4.03
2023-03-29T03:12:56.334Z,3.75
2023-03-29T03:16:05.731Z,3.05
2023-03-29T03:19:07.350Z,4.28
2023-03-29T03:22:09.980Z,3.35
2023-03-29T03:25:13.977Z,3.75
2023-03-29T03:28:16.326Z,3.17
2023-03-29T03:31:19.661Z,3.72
2023-03-29T03:34:53.540Z,4.07
2023-03-29T03:38:00.969Z,3.85
2023-03-29T03:41:02.916Z,3.95
2023-03-29T03:44:11.847Z,3.38
2023-03-29T03:47:14.573Z,3.70
2023-03-29T03:50:17.717Z,3.88
2023-03-29T03:53:20.531Z,3.60
2023-03-29T03:56:57.434Z,3.83
2023-03-29T04:00:24.254Z,4.00
2023-03-29T04:03:47.344Z,4.55
2023-03-29T04:06:51.314Z,4.38
2023-03-29T04:09:58.091Z,4.10
2023-03-29T04:13:22.476Z,3.83
2023-03-29T04:16:44.936Z,3.90
2023-03-29T04:20:15.529Z,4.20
2023-03-29T04:23:23.480Z,4.00
2023-03-29T04:26:25.914Z,3.20
2023-03-29T04:29:36.154Z,3.95
2023-03-29T04:32:50.030Z,4.00
2023-03-29T04:35:53.463Z,4.03
2023-03-29T04:38:56.267Z,3.90
2023-03-29T04:42:07.490Z,7.40
2023-03-29T04:45:10.002Z,10.57
2023-03-29T04:48:34.061Z,16.67
2023-03-29T04:51:38.423Z,9.70
2023-03-29T04:54:43.412Z,8.23
2023-03-29T04:57:59.597Z,9.88
2023-03-29T05:01:10.525Z,13.27
2023-03-29T05:04:18.394Z,11.30
2023-03-29T05:07:46.911Z,7.03
2023-03-29T05:10:51.973Z,5.95
2023-03-29T05:14:02.772Z,4.88
2023-03-29T05:17:09.517Z,4.90
2023-03-29T05:20:12.761Z,5.13
2023-03-29T05:23:42.197Z,5.00
2023-03-29T05:27:22.988Z,4.53
2023-03-29T05:30:44.565Z,4.47
2023-03-29T05:34:02.594Z,4.90
2023-03-29T05:37:05.697Z,5.93
2023-03-29T05:40:33.937Z,4.90
2023-03-29T05:43:53.864Z,5.18
2023-03-29T05:47:00.351Z,6.28
2023-03-29T05:50:02.173Z,6.28
2023-03-29T05:53:17.609Z,5.47
2023-03-29T05:56:22.570Z,5.32
2023-03-29T05:59:28.230Z,10.75
2023-03-29T06:02:30.674Z,8.18
2023-03-29T06:05:35.096Z,6.72
2023-03-29T06:08:37.690Z,7.90
2023-03-29T06:12:01.766Z,7.28
2023-03-29T06:15:13.275Z,12.98
2023-03-29T06:18:27.807Z,8.05
2023-03-29T06:21:30.340Z,5.60
2023-03-29T06:24:32.260Z,4.75
2023-03-29T06:27:39.334Z,5.30
2023-03-29T06:30:46.034Z,4.15
2023-03-29T06:33:49.443Z,4.00
2023-03-29T06:37:12.959Z,4.10
2023-03-29T06:40:37.649Z,4.65
2023-03-29T06:43:39.778Z,4.70
2023-03-29T06:46:43.230Z,6.53
2023-03-29T06:49:51.956Z,8.95
2023-03-29T06:53:14.098Z,8.90
2023-03-29T06:56:26.238Z,7.50
2023-03-29T06:59:48.320Z,5.57
2023-03-29T07:03:41.489Z,6.40
2023-03-29T07:06:48.348Z,6.55
2023-03-29T07:10:07.367Z,4.95
2023-03-29T07:13:27.720Z,5.55
2023-03-29T07:16:39.130Z,4.65
2023-03-29T07:20:08.201Z,6.97
2023-03-29T07:23:20.245Z,5.43
2023-03-29T07:26:28.837Z,4.18
2023-03-29T07:29:33.120Z,5.57
2023-03-29T07:32:45.484Z,6.07
2023-03-29T07:36:11.106Z,5.65
2023-03-29T07:39:13.641Z,6.07
2023-03-29T07:42:19.282Z,6.20
2023-03-29T07:45:26.832Z,5.22
2023-03-29T07:48:36.424Z,5.72
2023-03-29T07:51:42.983Z,6.90
2023-03-29T07:54:51.399Z,6.03
2023-03-29T07:58:14.501Z,7.30
2023-03-29T08:01:19.808Z,5.43
2023-03-29T08:04:43.444Z,5.77
2023-03-29T08:07:49.072Z,4.95
2023-03-29T08:11:10.185Z,5.90
2023-03-29T08:14:34.763Z,4.78
2023-03-29T08:17:42.580Z,5.03
2023-03-29T08:20:44.419Z,6.43
2023-03-29T08:23:48.338Z,5.60
2023-03-29T08:26:54.474Z,5.95
2023-03-29T08:29:56.127Z,4.85
2023-03-29T08:33:02.112Z,4.38
2023-03-29T08:39:20.977Z,4.70
2023-03-29T08:43:14.763Z,4.60
2023-03-29T08:47:00.039Z,4.15
2023-03-29T08:50:14.670Z,4.13
2023-03-29T08:53:27.708Z,4.95
2023-03-29T08:56:54.288Z,4.40
2023-03-29T09:00:10.526Z,6.18
2023-03-29T09:03:40.474Z,5.95
2023-03-29T09:06:49.114Z,4.88
2023-03-29T09:10:00.541Z,5.97
2023-03-29T09:13:28.786Z,6.63
2023-03-29T09:16:49.448Z,5.10
2023-03-29T09:20:11.810Z,4.93
2023-03-29T09:23:39.544Z,4.70
2023-03-29T09:27:42.704Z,5.38
2023-03-29T09:31:12.288Z,4.53
2023-03-29T09:34:31.419Z,4.45
2023-03-29T09:37:43.966Z,7.18
2023-03-29T09:40:51.739Z,5.68
2023-03-29T09:44:00.620Z,4.78
2023-03-29T09:47:21.299Z,4.88
2023-03-29T09:50:31.476Z,4.10
2023-03-29T09:53:36.160Z,4.72
2023-03-29T09:57:17.841Z,4.30
2023-03-29T10:00:23.554Z,4.40
2023-03-29T10:03:36.006Z,5.55
2023-03-29T10:06:52.510Z,4.70
2023-03-29T10:09:56.140Z,5.00
2023-03-29T10:13:23.255Z,4.50
2023-03-29T10:16:38.065Z,4.20
2023-03-29T10:19:51.260Z,4.45
2023-03-29T10:22:58.452Z,4.22
2023-03-29T10:26:04.274Z,5.35
2023-03-29T10:29:08.293Z,5.90
2023-03-29T10:32:23.257Z,4.45
2023-03-29T10:35:33.369Z,4.20
2023-03-29T10:45:21.619Z,4.15
2023-03-29T10:48:32.272Z,4.28
2023-03-29T10:51:36.659Z,4.75
2023-03-29T10:54:40.342Z,5.35
2023-03-29T10:57:57.382Z,5.68
2023-03-29T11:01:02.786Z,5.15
2023-03-29T11:04:38.166Z,4.55
2023-03-29T11:12:15.935Z,5.80
2023-03-29T11:15:39.986Z,4.28
2023-03-29T11:19:29.893Z,4.32
2023-03-29T11:22:55.745Z,4.43
2023-03-29T11:26:22.563Z,3.60
2023-03-29T11:29:57.015Z,4.05
2023-03-29T11:33:29.739Z,4.00
2023-03-29T11:36:50.533Z,5.05
2023-03-29T11:40:07.223Z,4.13
2023-03-29T11:46:20.248Z,6.00
2023-03-29T11:49:51.754Z,5.63
2023-03-29T11:53:13.868Z,5.43
2023-03-29T12:00:22.008Z,5.10
2023-03-29T12:04:04.194Z,4.07
2023-03-29T12:07:23.095Z,4.88
2023-03-29T12:10:34.426Z,3.78
2023-03-29T12:13:55.261Z,4.30
2023-03-29T12:17:08.455Z,4.55
2023-03-29T12:20:32.389Z,3.80
2023-03-29T12:23:36.689Z,3.88
2023-03-29T12:27:19.847Z,3.88
2023-03-29T12:30:59.847Z,3.88
2023-03-29T12:34:38.652Z,3.60
2023-03-29T12:38:20.773Z,5.20
2023-03-29T12:41:44.830Z,3.92
2023-03-29T12:45:05.740Z,4.30
2023-03-29T12:51:37.038Z,4.13
2023-03-29T12:54:39.021Z,5.15
2023-03-29T12:58:18.108Z,5.13
2023-03-29T13:01:35.081Z,3.75
2023-03-29T13:04:42.923Z,4.60
2023-03-29T13:07:49.873Z,4.68
2023-03-29T13:10:55.799Z,4.50
2023-03-29T13:14:26.335Z,4.00
2023-03-29T13:18:00.035Z,4.10
2023-03-29T13:21:14.233Z,4.70
2023-03-29T13:24:40.460Z,4.78
2023-03-29T13:28:07.377Z,5.13
2023-03-29T13:34:59.916Z,4.97
2023-03-29T13:38:31.853Z,4.72
2023-03-29T13:41:46.070Z,5.90
2023-03-29T13:44:51.577Z,5.55
2023-03-29T13:48:30.730Z,4.70
2023-03-29T13:51:34.052Z,6.32
2023-03-29T13:54:43.164Z,7.40
2023-03-29T13:58:05.674Z,5.75
2023-03-29T14:01:43.084Z,4.80
2023-03-29T14:04:51.025Z,4.60
2023-03-29T14:07:57.592Z,4.55
2023-03-29T14:11:06.566Z,5.85
2023-03-29T14:17:27.280Z,4.07
2023-03-29T14:20:32.760Z,5.05
2023-03-29T14:23:37.558Z,4.55
2023-03-29T14:26:46.123Z,5.93
2023-03-29T14:30:28.355Z,4.93
2023-03-29T14:33:38.123Z,3.85
2023-03-29T14:36:40.883Z,7.03
2023-03-29T14:39:42.818Z,6.20
2023-03-29T14:42:48.667Z,5.93
2023-03-29T14:45:50.749Z,5.57
2023-03-29T14:48:56.494Z,3.95
2023-03-29T14:51:58.994Z,3.83
2023-03-29T14:55:13.036Z,4.80
2023-03-29T15:01:53.825Z,3.85
2023-03-29T15:04:57.968Z,6.63
2023-03-29T15:08:01.745Z,6.88
2023-03-29T15:11:21.819Z,6.80
2023-03-29T15:14:27.007Z,7.20
2023-03-29T15:17:49.516Z,6.17
2023-03-29T15:20:56.321Z,6.78
2023-03-29T15:23:59.726Z,6.55
2023-03-29T15:27:13.450Z,5.55
2023-03-29T15:30:18.197Z,4.93
2023-03-29T15:33:26.185Z,5.43
2023-03-29T15:36:28.101Z,5.88
2023-03-29T15:39:30.409Z,5.70
2023-03-29T15:42:32.327Z,6.32
2023-03-29T15:45:34.193Z,5.85
2023-03-29T15:48:38.794Z,6.95
2023-03-29T15:51:40.685Z,5.65
2023-03-29T15:54:43.779Z,6.53
2023-03-29T15:57:48.787Z,8.50
2023-03-29T16:00:56.720Z,8.73
2023-03-29T16:04:00.419Z,5.65
2023-03-29T16:07:02.257Z,5.60
2023-03-29T16:10:04.093Z,7.68
2023-03-29T16:13:06.380Z,7.00
2023-03-29T16:16:18.985Z,4.90
2023-03-29T16:19:22.017Z,8.15
2023-03-29T16:22:23.607Z,6.05
2023-03-29T16:25:25.351Z,5.88
2023-03-29T16:28:29.969Z,6.22
2023-03-29T16:31:33.049Z,6.60
2023-03-29T16:34:38.276Z,7.80
2023-03-29T16:37:39.892Z,5.97
2023-03-29T16:40:45.137Z,6.18
2023-03-29T16:43:46.742Z,7.80
2023-03-29T16:46:48.385Z,6.13
2023-03-29T16:49:53.505Z,5.07
2023-03-29T16:52:55.237Z,9.20
2023-03-29T16:55:57.504Z,9.73
2023-03-29T17:02:22.852Z,9.82
2023-03-29T17:05:25.321Z,7.55
2023-03-29T17:08:26.858Z,5.50
2023-03-29T17:11:29.047Z,5.97
2023-03-29T17:14:30.915Z,5.82
2023-03-29T17:17:39.022Z,6.88
2023-03-29T17:20:41.423Z,6.53
2023-03-29T17:23:43.002Z,5.78
2023-03-29T17:26:45.984Z,8.50
2023-03-29T17:29:48.731Z,6.35
2023-03-29T17:32:52.223Z,7.38
2023-03-29T17:35:53.973Z,6.05
2023-03-29T17:38:57.732Z,5.85
2023-03-29T17:41:59.727Z,7.25
2023-03-29T17:45:03.856Z,6.45
2023-03-29T17:48:12.574Z,6.60
2023-03-29T17:51:14.136Z,6.95
2023-03-29T17:54:24.665Z,4.93
2023-03-29T17:57:26.439Z,5.03
2023-03-29T18:00:28.232Z,6.15
2023-03-29T18:03:55.469Z,5.60
2023-03-29T18:07:03.275Z,7.18
2023-03-29T18:10:09.982Z,5.65
2023-03-29T18:13:13.929Z,5.40
2023-03-29T18:16:15.846Z,6.55
2023-03-29T18:19:19.726Z,7.03
2023-03-29T18:22:21.663Z,5.07
2023-03-29T18:25:28.442Z,6.05
2023-03-29T18:28:31.208Z,5.75
2023-03-29T18:31:33.082Z,5.93
2023-03-29T18:34:34.822Z,7.50
2023-03-29T18:40:53.501Z,6.10
2023-03-29T18:44:06.946Z,7.40
2023-03-29T18:47:08.652Z,5.20
2023-03-29T18:50:12.349Z,5.88
2023-03-29T18:53:14.465Z,5.30
2023-03-29T18:56:16.250Z,6.28
2023-03-29T18:59:18.041Z,7.10
2023-03-29T19:02:20.793Z,6.85
2023-03-29T19:05:22.526Z,6.00
2023-03-29T19:08:26.266Z,6.50
2023-03-29T19:11:43.680Z,7.47
2023-03-29T19:14:48.714Z,7.15
2023-03-29T19:17:52.781Z,5.72
2023-03-29T19:20:54.669Z,6.32
2023-03-29T19:23:56.407Z,9.00
2023-03-29T19:26:58.605Z,6.13
2023-03-29T19:30:00.565Z,6.30
2023-03-29T19:36:23.853Z,6.37
2023-03-29T19:39:27.337Z,8.45
2023-03-29T19:42:28.842Z,7.55
2023-03-29T19:45:30.711Z,6.97
2023-03-29T19:48:33.790Z,6.50
2023-03-29T19:51:38.368Z,6.75
2023-03-29T19:54:44.190Z,5.90
2023-03-29T19:57:54.913Z,5.72
2023-03-29T20:00:59.456Z,5.32
2023-03-29T20:04:04.706Z,6.72
2023-03-29T20:07:06.750Z,5.80
2023-03-29T20:10:11.400Z,5.95
2023-03-29T20:13:14.582Z,5.60
2023-03-29T20:16:19.287Z,6.90
2023-03-29T20:19:41.177Z,7.78
2023-03-29T20:22:47.987Z,9.13
2023-03-29T20:25:49.655Z,6.75
2023-03-29T20:28:53.582Z,7.25
2023-03-29T20:31:55.146Z,7.32
2023-03-29T20:34:56.739Z,8.75
2023-03-29T20:38:10.492Z,6.40
2023-03-29T20:41:12.152Z,6.25
2023-03-29T20:44:17.119Z,8.20
2023-03-29T20:47:19.277Z,7.93
2023-03-29T20:50:20.906Z,7.68
2023-03-29T20:53:22.400Z,7.22
2023-03-29T20:56:26.106Z,7.20
2023-03-29T20:59:35.940Z,6.75
2023-03-29T21:02:38.982Z,7.55
2023-03-29T21:05:40.803Z,7.57
2023-03-29T21:08:54.305Z,10.23
2023-03-29T21:11:56.016Z,5.63
2023-03-29T21:15:02.343Z,9.02
2023-03-29T21:18:04.573Z,7.32
2023-03-29T21:21:12.634Z,8.98
2023-03-29T21:24:18.798Z,9.10
2023-03-29T21:27:23.107Z,9.57
2023-03-29T21:30:24.837Z,10.65
2023-03-29T21:33:26.376Z,8.23
2023-03-29T21:36:29.856Z,8.68
2023-03-29T21:43:19.969Z,9.45
2023-03-29T21:46:27.547Z,11.63
2023-03-29T21:49:31.475Z,10.60
2023-03-29T21:52:39.121Z,11.25
2023-03-29T21:55:40.698Z,7.55
2023-03-29T21:58:42.407Z,8.90
2023-03-29T22:01:44.058Z,9.60
2023-03-29T22:04:48.188Z,11.38
2023-03-29T22:07:52.926Z,9.30
2023-03-29T22:10:56.727Z,8.45
2023-03-29T22:13:58.360Z,8.45
2023-03-29T22:16:59.954Z,11.48
2023-03-29T22:20:12.653Z,12.05
2023-03-29T22:23:21.606Z,9.43
2023-03-29T22:26:27.534Z,9.00
2023-03-29T22:29:31.537Z,10.50
2023-03-29T22:32:36.997Z,8.90
2023-03-29T22:35:46.058Z,8.75
2023-03-29T22:38:48.292Z,8.90
2023-03-29T22:41:56.215Z,10.02
2023-03-29T22:44:57.774Z,8.40
2023-03-29T22:47:59.770Z,8.43
2023-03-29T22:51:03.546Z,8.80
2023-03-29T22:54:05.314Z,10.90
2023-03-29T22:57:09.252Z,8.55
2023-03-29T23:00:17.574Z,7.10
2023-03-29T23:03:19.999Z,8.10
2023-03-29T23:06:31.852Z,8.50
2023-03-29T23:09:34.007Z,8.25
2023-03-29T23:12:38.355Z,10.80
2023-03-29T23:15:47.249Z,9.93
2023-03-29T23:18:51.887Z,10.75
2023-03-29T23:21:53.391Z,9.35
2023-03-29T23:24:54.977Z,9.07
2023-03-29T23:27:57.387Z,8.65
2023-03-29T23:31:06.527Z,7.57
2023-03-29T23:34:09.154Z,9.02
2023-03-29T23:37:10.696Z,9.98
2023-03-29T23:40:17.345Z,10.00
2023-03-29T23:43:18.881Z,8.93
2023-03-29T23:46:23.430Z,6.88
2023-03-29T23:49:25.074Z,10.38
2023-03-29T23:52:27.204Z,8.90
2023-03-29T23:55:34.675Z,11.23
2023-03-29T23:58:37.948Z,10.82
